sensor_id;sensor_type;location;lat;lon;timestamp;pressure;altitude;pressure_sealevel;temperature;humidity
62548;BME280;48602;45.192;5.722;2023-03-20T00:00:32;99698.84;;;8.17;89.65
62548;BME280;48602;45.192;5.722;2023-03-20T00:02:58;99698.78;;;8.20;89.20
62548;BME280;48602;45.192;5.722;2023-03-20T00:05:26;99699.50;;;8.26;89.92
62548;BME280;48602;45.192;5.722;2023-03-20T00:07:53;99702.03;;;8.31;90.02
62548;BME280;48602;45.192;5.722;2023-03-20T00:10:20;99701.16;;;8.33;89.20
62548;BME280;48602;45.192;5.722;2023-03-20T00:12:48;99703.63;;;8.39;89.03
62548;BME280;48602;45.192;5.722;2023-03-20T00:15:28;99702.66;;;8.44;88.01
62548;BME280;48602;45.192;5.722;2023-03-20T00:17:54;99702.56;;;8.48;88.71
62548;BME280;48602;45.192;5.722;2023-03-20T00:20:20;99700.72;;;8.53;89.73
62548;BME280;48602;45.192;5.722;2023-03-20T00:22:46;99699.69;;;8.59;90.06
62548;BME280;48602;45.192;5.722;2023-03-20T00:25:16;99701.28;;;8.66;91.05
62548;BME280;48602;45.192;5.722;2023-03-20T00:27:43;99696.81;;;8.71;92.38
62548;BME280;48602;45.192;5.722;2023-03-20T00:30:26;99697.50;;;8.78;94.20
62548;BME280;48602;45.192;5.722;2023-03-20T00:32:54;99692.97;;;8.84;95.06
62548;BME280;48602;45.192;5.722;2023-03-20T00:35:23;99685.72;;;8.94;95.04
62548;BME280;48602;45.192;5.722;2023-03-20T00:37:50;99696.09;;;9.00;95.44
62548;BME280;48602;45.192;5.722;2023-03-20T00:40:15;99689.78;;;9.07;95.49
62548;BME280;48602;45.192;5.722;2023-03-20T00:42:43;99688.75;;;9.13;95.15
62548;BME280;48602;45.192;5.722;2023-03-20T00:45:16;99688.66;;;9.17;94.83
62548;BME280;48602;45.192;5.722;2023-03-20T00:47:43;99687.69;;;9.21;94.38
62548;BME280;48602;45.192;5.722;2023-03-20T00:50:18;99684.09;;;9.24;93.71
62548;BME280;48602;45.192;5.722;2023-03-20T00:52:45;99686.66;;;9.27;94.40
62548;BME280;48602;45.192;5.722;2023-03-20T00:55:11;99677.75;;;9.32;94.59
62548;BME280;48602;45.192;5.722;2023-03-20T00:57:43;99679.41;;;9.36;93.95
62548;BME280;48602;45.192;5.722;2023-03-20T01:00:23;99677.56;;;9.38;92.18
62548;BME280;48602;45.192;5.722;2023-03-20T01:02:54;99670.59;;;9.37;92.20
62548;BME280;48602;45.192;5.722;2023-03-20T01:05:21;99671.53;;;9.35;92.77
62548;BME280;48602;45.192;5.722;2023-03-20T01:07:47;99664.50;;;9.35;92.73
62548;BME280;48602;45.192;5.722;2023-03-20T01:10:13;99660.16;;;9.34;92.37
62548;BME280;48602;45.192;5.722;2023-03-20T01:12:40;99660.19;;;9.33;92.19
62548;BME280;48602;45.192;5.722;2023-03-20T01:15:22;99664.66;;;9.29;91.76
62548;BME280;48602;45.192;5.722;2023-03-20T01:17:49;99651.53;;;9.28;92.21
62548;BME280;48602;45.192;5.722;2023-03-20T01:20:26;99653.31;;;9.27;92.40
62548;BME280;48602;45.192;5.722;2023-03-20T01:22:52;99652.41;;;9.28;92.18
62548;BME280;48602;45.192;5.722;2023-03-20T01:25:19;99641.06;;;9.26;91.77
62548;BME280;48602;45.192;5.722;2023-03-20T01:27:50;99640.34;;;9.21;91.72
62548;BME280;48602;45.192;5.722;2023-03-20T01:30:23;99646.59;;;9.16;92.48
62548;BME280;48602;45.192;5.722;2023-03-20T01:32:48;99630.06;;;9.10;91.57
62548;BME280;48602;45.192;5.722;2023-03-20T01:35:16;99627.47;;;9.09;92.93
62548;BME280;48602;45.192;5.722;2023-03-20T01:37:43;99630.25;;;9.04;93.81
62548;BME280;48602;45.192;5.722;2023-03-20T01:42:41;99621.63;;;8.98;94.17
62548;BME280;48602;45.192;5.722;2023-03-20T01:45:16;99619.00;;;8.98;94.28
62548;BME280;48602;45.192;5.722;2023-03-20T01:47:43;99617.28;;;8.97;94.11
62548;BME280;48602;45.192;5.722;2023-03-20T01:52:48;99615.59;;;8.94;93.49
62548;BME280;48602;45.192;5.722;2023-03-20T01:55:15;99618.25;;;8.93;93.48
62548;BME280;48602;45.192;5.722;2023-03-20T01:57:40;99615.72;;;8.88;94.28
62548;BME280;48602;45.192;5.722;2023-03-20T02:00:10;99620.19;;;8.86;93.26
62548;BME280;48602;45.192;5.722;2023-03-20T02:02:37;99615.91;;;8.82;92.66
62548;BME280;48602;45.192;5.722;2023-03-20T02:05:07;99610.75;;;8.78;92.48
62548;BME280;48602;45.192;5.722;2023-03-20T02:07:35;99608.22;;;8.73;93.33
62548;BME280;48602;45.192;5.722;2023-03-20T02:10:10;99603.97;;;8.69;94.11
62548;BME280;48602;45.192;5.722;2023-03-20T02:12:38;99609.31;;;8.66;93.25
62548;BME280;48602;45.192;5.722;2023-03-20T02:15:06;99611.13;;;8.62;93.32
62548;BME280;48602;45.192;5.722;2023-03-20T02:17:32;99605.94;;;8.59;93.44
62548;BME280;48602;45.192;5.722;2023-03-20T02:31:35;99590.22;;;8.58;94.38
62548;BME280;48602;45.192;5.722;2023-03-20T02:39:26;99590.84;;;8.69;94.22
62548;BME280;48602;45.192;5.722;2023-03-20T02:47:44;99597.66;;;8.76;94.24
62548;BME280;48602;45.192;5.722;2023-03-20T02:50:14;99594.09;;;8.79;94.45
62548;BME280;48602;45.192;5.722;2023-03-20T02:58:25;99602.72;;;8.84;94.05
62548;BME280;48602;45.192;5.722;2023-03-20T03:01:16;99596.63;;;8.82;93.97
62548;BME280;48602;45.192;5.722;2023-03-20T03:03:52;99603.66;;;8.81;94.07
62548;BME280;48602;45.192;5.722;2023-03-20T03:06:29;99606.28;;;8.81;94.01
62548;BME280;48602;45.192;5.722;2023-03-20T03:09:05;99603.66;;;8.81;94.06
62548;BME280;48602;45.192;5.722;2023-03-20T03:11:35;99601.06;;;8.80;93.87
62548;BME280;48602;45.192;5.722;2023-03-20T03:14:03;99606.41;;;8.77;94.08
62548;BME280;48602;45.192;5.722;2023-03-20T03:16:36;99594.22;;;8.72;93.62
62548;BME280;48602;45.192;5.722;2023-03-20T03:19:07;99597.00;;;8.68;93.77
62548;BME280;48602;45.192;5.722;2023-03-20T03:21:36;99592.66;;;8.65;94.23
62548;BME280;48602;45.192;5.722;2023-03-20T03:24:04;99597.84;;;8.68;94.48
62548;BME280;48602;45.192;5.722;2023-03-20T03:26:33;99595.25;;;8.67;94.47
62548;BME280;48602;45.192;5.722;2023-03-20T03:29:09;99590.88;;;8.67;94.55
62548;BME280;48602;45.192;5.722;2023-03-20T03:31:36;99596.13;;;8.67;94.75
62548;BME280;48602;45.192;5.722;2023-03-20T03:34:03;99596.16;;;8.66;94.49
62548;BME280;48602;45.192;5.722;2023-03-20T03:37:20;99583.91;;;8.65;94.41
62548;BME280;48602;45.192;5.722;2023-03-20T03:44:40;99600.63;;;8.62;94.99
62548;BME280;48602;45.192;5.722;2023-03-20T03:47:16;99597.19;;;8.59;95.00
62548;BME280;48602;45.192;5.722;2023-03-20T03:49:49;99593.75;;;8.57;94.93
62548;BME280;48602;45.192;5.722;2023-03-20T03:52:20;99598.16;;;8.55;95.04
62548;BME280;48602;45.192;5.722;2023-03-20T03:54:58;99603.50;;;8.53;94.17
62548;BME280;48602;45.192;5.722;2023-03-20T03:57:30;99604.59;;;8.43;94.11
62548;BME280;48602;45.192;5.722;2023-03-20T04:00:00;99609.16;;;8.36;94.51
62548;BME280;48602;45.192;5.722;2023-03-20T04:02:28;99604.91;;;8.28;94.60
62548;BME280;48602;45.192;5.722;2023-03-20T04:04:53;99608.59;;;8.21;94.75
62548;BME280;48602;45.192;5.722;2023-03-20T04:07:19;99607.00;;;8.14;94.75
62548;BME280;48602;45.192;5.722;2023-03-20T04:09:45;99618.53;;;8.06;94.98
62548;BME280;48602;45.192;5.722;2023-03-20T04:12:38;99609.94;;;8.00;95.27
62548;BME280;48602;45.192;5.722;2023-03-20T04:15:05;99605.69;;;7.93;95.72
62548;BME280;48602;45.192;5.722;2023-03-20T04:17:30;99606.63;;;7.90;96.04
62548;BME280;48602;45.192;5.722;2023-03-20T04:19:56;99604.91;;;7.89;96.14
62548;BME280;48602;45.192;5.722;2023-03-20T04:22:22;99614.63;;;7.86;96.27
62548;BME280;48602;45.192;5.722;2023-03-20T04:24:47;99617.34;;;7.81;96.59
62548;BME280;48602;45.192;5.722;2023-03-20T04:27:13;99624.44;;;7.76;96.38
62548;BME280;48602;45.192;5.722;2023-03-20T04:29:39;99637.66;;;7.71;96.40
62548;BME280;48602;45.192;5.722;2023-03-20T04:32:05;99638.63;;;7.67;96.64
62548;BME280;48602;45.192;5.722;2023-03-20T04:34:30;99649.19;;;7.64;96.44
62548;BME280;48602;45.192;5.722;2023-03-20T04:36:56;99639.66;;;7.59;96.33
62548;BME280;48602;45.192;5.722;2023-03-20T04:39:21;99634.47;;;7.56;96.26
62548;BME280;48602;45.192;5.722;2023-03-20T04:41:47;99631.03;;;7.54;96.39
62548;BME280;48602;45.192;5.722;2023-03-20T04:44:12;99630.19;;;7.52;96.07
62548;BME280;48602;45.192;5.722;2023-03-20T04:46:38;99626.72;;;7.50;96.00
62548;BME280;48602;45.192;5.722;2023-03-20T04:49:03;99625.88;;;7.49;96.18
62548;BME280;48602;45.192;5.722;2023-03-20T04:51:28;99625.06;;;7.46;96.03
62548;BME280;48602;45.192;5.722;2023-03-20T04:53:54;99621.59;;;7.44;96.57
62548;BME280;48602;45.192;5.722;2023-03-20T04:56:19;99617.22;;;7.44;96.47
62548;BME280;48602;45.192;5.722;2023-03-20T04:58:45;99613.72;;;7.44;96.50
62548;BME280;48602;45.192;5.722;2023-03-20T05:01:10;99618.94;;;7.45;96.35
62548;BME280;48602;45.192;5.722;2023-03-20T05:03:36;99625.06;;;7.46;95.98
62548;BME280;48602;45.192;5.722;2023-03-20T05:06:01;99618.03;;;7.48;95.88
62548;BME280;48602;45.192;5.722;2023-03-20T05:08:26;99611.84;;;7.50;95.54
62548;BME280;48602;45.192;5.722;2023-03-20T05:10:52;99612.72;;;7.51;96.14
62548;BME280;48602;45.192;5.722;2023-03-20T05:13:17;99614.53;;;7.47;95.11
62548;BME280;48602;45.192;5.722;2023-03-20T05:15:43;99616.31;;;7.45;94.89
62548;BME280;48602;45.192;5.722;2023-03-20T05:18:08;99614.59;;;7.44;94.81
62548;BME280;48602;45.192;5.722;2023-03-20T05:20:34;99619.81;;;7.46;94.23
62548;BME280;48602;45.192;5.722;2023-03-20T05:23:01;99616.31;;;7.45;94.27
62548;BME280;48602;45.192;5.722;2023-03-20T05:25:26;99614.56;;;7.46;94.13
62548;BME280;48602;45.192;5.722;2023-03-20T05:27:51;99615.44;;;7.46;94.07
62548;BME280;48602;45.192;5.722;2023-03-20T05:30:17;99618.88;;;7.48;94.69
62548;BME280;48602;45.192;5.722;2023-03-20T05:32:44;99620.63;;;7.49;93.97
62548;BME280;48602;45.192;5.722;2023-03-20T05:35:10;99622.38;;;7.49;94.34
62548;BME280;48602;45.192;5.722;2023-03-20T05:37:36;99631.03;;;7.54;95.14
62548;BME280;48602;45.192;5.722;2023-03-20T05:40:02;99628.41;;;7.54;93.96
62548;BME280;48602;45.192;5.722;2023-03-20T05:42:28;99634.47;;;7.56;93.59
62548;BME280;48602;45.192;5.722;2023-03-20T05:44:53;99636.19;;;7.57;93.55
62548;BME280;48602;45.192;5.722;2023-03-20T05:47:19;99630.09;;;7.55;92.94
62548;BME280;48602;45.192;5.722;2023-03-20T05:49:45;99630.22;;;7.50;93.04
62548;BME280;48602;45.192;5.722;2023-03-20T05:52:10;99630.31;;;7.46;92.97
62548;BME280;48602;45.192;5.722;2023-03-20T05:54:36;99634.72;;;7.42;93.38
62548;BME280;48602;45.192;5.722;2023-03-20T05:57:01;99626.13;;;7.37;93.45
62548;BME280;48602;45.192;5.722;2023-03-20T05:59:27;99636.69;;;7.32;93.75
62548;BME280;48602;45.192;5.722;2023-03-20T06:01:52;99632.34;;;7.30;94.11
62548;BME280;48602;45.192;5.722;2023-03-20T06:04:17;99638.50;;;7.29;93.85
62548;BME280;48602;45.192;5.722;2023-03-20T06:06:43;99640.25;;;7.28;93.69
62548;BME280;48602;45.192;5.722;2023-03-20T06:09:08;99643.72;;;7.30;93.79
62548;BME280;48602;45.192;5.722;2023-03-20T06:11:33;99643.63;;;7.35;94.14
62548;BME280;48602;45.192;5.722;2023-03-20T06:13:59;99642.63;;;7.41;93.70
62548;BME280;48602;45.192;5.722;2023-03-20T06:16:24;99648.66;;;7.46;93.62
62548;BME280;48602;45.192;5.722;2023-03-20T06:18:51;99652.06;;;7.51;93.54
62548;BME280;48602;45.192;5.722;2023-03-20T06:21:16;99650.22;;;7.54;92.55
62548;BME280;48602;45.192;5.722;2023-03-20T06:23:41;99651.03;;;7.58;92.88
62548;BME280;48602;45.192;5.722;2023-03-20T06:26:07;99649.22;;;7.63;92.23
62548;BME280;48602;45.192;5.722;2023-03-20T06:28:33;99653.50;;;7.67;92.30
62548;BME280;48602;45.192;5.722;2023-03-20T06:30:58;99653.38;;;7.73;92.54
62548;BME280;48602;45.192;5.722;2023-03-20T06:33:23;99654.16;;;7.78;92.80
62548;BME280;48602;45.192;5.722;2023-03-20T06:35:49;99654.91;;;7.85;92.52
62548;BME280;48602;45.192;5.722;2023-03-20T06:38:15;99649.50;;;7.91;92.30
62548;BME280;48602;45.192;5.722;2023-03-20T06:40:41;99655.47;;;7.99;92.09
62548;BME280;48602;45.192;5.722;2023-03-20T06:43:07;99651.81;;;8.04;92.66
62548;BME280;48602;45.192;5.722;2023-03-20T06:45:33;99655.19;;;8.11;92.15
62548;BME280;48602;45.192;5.722;2023-03-20T06:47:58;99653.31;;;8.18;92.14
62548;BME280;48602;45.192;5.722;2023-03-20T06:50:23;99655.81;;;8.22;91.65
62548;BME280;48602;45.192;5.722;2023-03-20T06:52:49;99657.44;;;8.28;91.49
62548;BME280;48602;45.192;5.722;2023-03-20T06:55:15;99656.53;;;8.32;91.29
62548;BME280;48602;45.192;5.722;2023-03-20T06:57:41;99651.97;;;8.38;91.56
62548;BME280;48602;45.192;5.722;2023-03-20T07:00:07;99654.47;;;8.45;91.39
62548;BME280;48602;45.192;5.722;2023-03-20T07:02:34;99658.75;;;8.50;91.24
62548;BME280;48602;45.192;5.722;2023-03-20T07:05:00;99649.84;;;8.56;90.96
62548;BME280;48602;45.192;5.722;2023-03-20T07:07:25;99664.66;;;8.58;90.16
62548;BME280;48602;45.192;5.722;2023-03-20T07:09:51;99672.44;;;8.63;90.45
62548;BME280;48602;45.192;5.722;2023-03-20T07:12:16;99663.56;;;8.68;90.56
62548;BME280;48602;45.192;5.722;2023-03-20T07:14:50;99677.41;;;8.75;89.82
62548;BME280;48602;45.192;5.722;2023-03-20T07:17:18;99676.44;;;8.79;89.56
62548;BME280;48602;45.192;5.722;2023-03-20T07:19:44;99675.47;;;8.83;88.96
62548;BME280;48602;45.192;5.722;2023-03-20T07:22:19;99668.38;;;8.87;89.76
62548;BME280;48602;45.192;5.722;2023-03-20T07:24:45;99678.72;;;8.93;90.16
62548;BME280;48602;45.192;5.722;2023-03-20T07:27:11;99685.56;;;9.01;90.60
62548;BME280;48602;45.192;5.722;2023-03-20T07:29:36;99687.94;;;9.10;90.63
62548;BME280;48602;45.192;5.722;2023-03-20T07:32:02;99693.78;;;9.22;90.86
62548;BME280;48602;45.192;5.722;2023-03-20T07:34:27;99679.56;;;9.29;90.91
62548;BME280;48602;45.192;5.722;2023-03-20T07:36:53;99682.88;;;9.37;90.74
62548;BME280;48602;45.192;5.722;2023-03-20T07:39:18;99686.16;;;9.45;90.71
62548;BME280;48602;45.192;5.722;2023-03-20T07:41:43;99688.59;;;9.53;91.06
62548;BME280;48602;45.192;5.722;2023-03-20T07:44:09;99691.91;;;9.59;91.08
62548;BME280;48602;45.192;5.722;2023-03-20T07:46:34;99692.59;;;9.67;90.48
62548;BME280;48602;45.192;5.722;2023-03-20T07:49:00;99696.75;;;9.74;90.21
62548;BME280;48602;45.192;5.722;2023-03-20T07:51:26;99699.25;;;9.80;89.96
62548;BME280;48602;45.192;5.722;2023-03-20T07:53:51;99697.25;;;9.89;90.07
62548;BME280;48602;45.192;5.722;2023-03-20T07:56:16;99696.13;;;9.97;89.76
62548;BME280;48602;45.192;5.722;2023-03-20T07:58:42;99702.00;;;10.07;90.14
62548;BME280;48602;45.192;5.722;2023-03-20T08:01:07;99697.34;;;10.17;89.63
62548;BME280;48602;45.192;5.722;2023-03-20T08:03:33;99698.81;;;10.27;89.25
62548;BME280;48602;45.192;5.722;2023-03-20T08:05:58;99698.56;;;10.36;89.19
62548;BME280;48602;45.192;5.722;2023-03-20T08:08:23;99702.53;;;10.49;88.47
62548;BME280;48602;45.192;5.722;2023-03-20T08:10:49;99698.69;;;10.59;87.67
62548;BME280;48602;45.192;5.722;2023-03-20T08:13:15;99697.66;;;10.65;87.31
62548;BME280;48602;45.192;5.722;2023-03-20T08:15:41;99698.25;;;10.73;87.64
62548;BME280;48602;45.192;5.722;2023-03-20T08:18:06;99698.84;;;10.82;87.32
62548;BME280;48602;45.192;5.722;2023-03-20T08:20:31;99702.97;;;10.91;87.13
62548;BME280;48602;45.192;5.722;2023-03-20T08:22:57;99703.41;;;11.05;87.05
62548;BME280;48602;45.192;5.722;2023-03-20T08:25:22;99700.19;;;11.22;86.61
62548;BME280;48602;45.192;5.722;2023-03-20T08:27:48;99701.47;;;11.37;85.96
62548;BME280;48602;45.192;5.722;2023-03-20T08:30:13;99694.06;;;11.46;85.50
62548;BME280;48602;45.192;5.722;2023-03-20T08:32:39;99699.91;;;11.56;85.23
62548;BME280;48602;45.192;5.722;2023-03-20T08:35:05;99697.69;;;11.69;85.02
62548;BME280;48602;45.192;5.722;2023-03-20T08:37:33;99699.00;;;11.82;84.05
62548;BME280;48602;45.192;5.722;2023-03-20T08:39:58;99702.97;;;11.94;83.54
62548;BME280;48602;45.192;5.722;2023-03-20T08:42:24;99700.84;;;12.05;83.33
62548;BME280;48602;45.192;5.722;2023-03-20T08:44:49;99698.69;;;12.14;82.45
62548;BME280;48602;45.192;5.722;2023-03-20T08:47:15;99698.34;;;12.23;82.56
62548;BME280;48602;45.192;5.722;2023-03-20T08:49:40;99710.41;;;12.31;81.91
62548;BME280;48602;45.192;5.722;2023-03-20T08:52:07;99702.16;;;12.40;81.88
62548;BME280;48602;45.192;5.722;2023-03-20T08:54:32;99708.91;;;12.47;81.43
62548;BME280;48602;45.192;5.722;2023-03-20T08:56:58;99712.25;;;12.52;80.59
62548;BME280;48602;45.192;5.722;2023-03-20T08:59:23;99712.00;;;12.58;80.60
62548;BME280;48602;45.192;5.722;2023-03-20T09:01:49;99710.28;;;12.57;80.29
62548;BME280;48602;45.192;5.722;2023-03-20T09:04:14;99721.53;;;12.62;79.71
62548;BME280;48602;45.192;5.722;2023-03-20T09:06:40;99721.06;;;12.74;79.25
62548;BME280;48602;45.192;5.722;2023-03-20T09:09:06;99718.94;;;12.84;78.51
62548;BME280;48602;45.192;5.722;2023-03-20T09:11:32;99717.69;;;12.92;77.26
62548;BME280;48602;45.192;5.722;2023-03-20T09:13:58;99713.09;;;12.98;77.45
62548;BME280;48602;45.192;5.722;2023-03-20T09:16:24;99716.59;;;12.98;76.07
62548;BME280;48602;45.192;5.722;2023-03-20T09:18:49;99722.81;;;12.97;75.73
62548;BME280;48602;45.192;5.722;2023-03-20T09:21:15;99720.16;;;12.97;76.53
62548;BME280;48602;45.192;5.722;2023-03-20T09:23:40;99714.75;;;13.00;75.73
62548;BME280;48602;45.192;5.722;2023-03-20T09:26:06;99710.25;;;13.02;75.66
62548;BME280;48602;45.192;5.722;2023-03-20T09:28:31;99725.16;;;13.05;75.42
62548;BME280;48602;45.192;5.722;2023-03-20T09:30:57;99719.06;;;13.03;74.66
62548;BME280;48602;45.192;5.722;2023-03-20T09:33:22;99728.84;;;13.01;74.45
62548;BME280;48602;45.192;5.722;2023-03-20T09:35:48;99738.00;;;12.92;74.54
62548;BME280;48602;45.192;5.722;2023-03-20T09:38:14;99734.56;;;12.90;73.61
62548;BME280;48602;45.192;5.722;2023-03-20T09:43:54;99742.44;;;12.70;74.14
62548;BME280;48602;45.192;5.722;2023-03-20T09:54:40;99743.06;;;12.30;73.54
62548;BME280;48602;45.192;5.722;2023-03-20T09:57:16;99751.75;;;12.33;74.37
62548;BME280;48602;45.192;5.722;2023-03-20T09:59:44;99749.63;;;12.43;74.10
62548;BME280;48602;45.192;5.722;2023-03-20T10:02:14;99752.84;;;12.51;71.69
62548;BME280;48602;45.192;5.722;2023-03-20T10:04:46;99751.22;;;12.47;73.62
62548;BME280;48602;45.192;5.722;2023-03-20T10:07:14;99740.16;;;12.37;72.45
62548;BME280;48602;45.192;5.722;2023-03-20T10:09:41;99755.03;;;12.40;72.29
62548;BME280;48602;45.192;5.722;2023-03-20T10:12:33;99748.81;;;12.41;72.36
62548;BME280;48602;45.192;5.722;2023-03-20T10:15:37;99747.16;;;12.38;71.07
62548;BME280;48602;45.192;5.722;2023-03-20T10:18:20;99751.66;;;12.36;71.54
62548;BME280;48602;45.192;5.722;2023-03-20T10:20:54;99745.50;;;12.36;71.43
62548;BME280;48602;45.192;5.722;2023-03-20T10:26:11;99753.59;;;12.31;69.52
62548;BME280;48602;45.192;5.722;2023-03-20T10:36:41;99751.41;;;12.19;70.47
62548;BME280;48602;45.192;5.722;2023-03-20T10:39:42;99746.88;;;12.22;70.06
62548;BME280;48602;45.192;5.722;2023-03-20T10:42:18;99739.81;;;12.23;70.27
62548;BME280;48602;45.192;5.722;2023-03-20T10:44:58;99749.53;;;12.22;70.36
62548;BME280;48602;45.192;5.722;2023-03-20T10:47:29;99749.44;;;12.24;71.80
62548;BME280;48602;45.192;5.722;2023-03-20T10:50:04;99759.13;;;12.23;71.06
62548;BME280;48602;45.192;5.722;2023-03-20T10:52:35;99762.84;;;12.19;69.34
62548;BME280;48602;45.192;5.722;2023-03-20T10:55:16;99763.16;;;12.10;67.77
62548;BME280;48602;45.192;5.722;2023-03-20T10:57:51;99763.59;;;11.98;68.92
62548;BME280;48602;45.192;5.722;2023-03-20T11:00:21;99759.53;;;11.90;68.38
62548;BME280;48602;45.192;5.722;2023-03-20T11:02:47;99765.06;;;11.82;68.43
62548;BME280;48602;45.192;5.722;2023-03-20T11:05:33;99757.47;;;11.71;67.64
62548;BME280;48602;45.192;5.722;2023-03-20T11:08:13;99776.03;;;11.70;69.93
62548;BME280;48602;45.192;5.722;2023-03-20T11:10:42;99769.00;;;11.69;69.54
62548;BME280;48602;45.192;5.722;2023-03-20T11:13:22;99777.81;;;11.69;68.79
62548;BME280;48602;45.192;5.722;2023-03-20T11:15:51;99774.34;;;11.67;69.77
62548;BME280;48602;45.192;5.722;2023-03-20T11:18:17;99771.75;;;11.66;69.56
62548;BME280;48602;45.192;5.722;2023-03-20T11:21:01;99767.34;;;11.66;69.35
62548;BME280;48602;45.192;5.722;2023-03-20T11:23:28;99772.56;;;11.68;69.38
62548;BME280;48602;45.192;5.722;2023-03-20T11:26:02;99758.41;;;11.70;69.35
62548;BME280;48602;45.192;5.722;2023-03-20T11:28:45;99767.13;;;11.72;68.37
62548;BME280;48602;45.192;5.722;2023-03-20T11:33:42;99765.22;;;11.77;68.22
62548;BME280;48602;45.192;5.722;2023-03-20T11:36:25;99769.66;;;11.75;68.53
62548;BME280;48602;45.192;5.722;2023-03-20T11:38:52;99761.72;;;11.75;68.62
62548;BME280;48602;45.192;5.722;2023-03-20T11:41:25;99773.19;;;11.76;68.07
62548;BME280;48602;45.192;5.722;2023-03-20T11:43:51;99762.47;;;11.80;67.80
62548;BME280;48602;45.192;5.722;2023-03-20T11:46:19;99763.22;;;11.84;66.88
62548;BME280;48602;45.192;5.722;2023-03-20T11:48:46;99757.78;;;11.88;67.47
62548;BME280;48602;45.192;5.722;2023-03-20T11:51:18;99759.56;;;11.88;66.70
62548;BME280;48602;45.192;5.722;2023-03-20T11:56:19;99759.28;;;11.96;67.61
62548;BME280;48602;45.192;5.722;2023-03-20T12:01:23;99751.50;;;12.16;67.18
62548;BME280;48602;45.192;5.722;2023-03-20T12:04:06;99750.25;;;12.26;65.05
62548;BME280;48602;45.192;5.722;2023-03-20T12:09:34;99747.28;;;12.35;66.71
62548;BME280;48602;45.192;5.722;2023-03-20T12:17:26;99735.88;;;12.56;65.00
62548;BME280;48602;45.192;5.722;2023-03-20T12:19:58;99738.22;;;12.64;65.40
62548;BME280;48602;45.192;5.722;2023-03-20T12:25:25;99726.13;;;12.80;65.53
62548;BME280;48602;45.192;5.722;2023-03-20T12:28:02;99722.44;;;12.84;64.25
62548;BME280;48602;45.192;5.722;2023-03-20T12:31:25;99720.34;;;12.92;63.99
62548;BME280;48602;45.192;5.722;2023-03-20T12:36:17;99718.47;;;13.18;63.94
62548;BME280;48602;45.192;5.722;2023-03-20T12:38:49;99715.47;;;13.25;63.83
62548;BME280;48602;45.192;5.722;2023-03-20T12:41:25;99704.06;;;13.45;65.11
62548;BME280;48602;45.192;5.722;2023-03-20T12:44:28;99697.19;;;13.61;62.27
62548;BME280;48602;45.192;5.722;2023-03-20T12:49:26;99698.47;;;13.73;64.06
62548;BME280;48602;45.192;5.722;2023-03-20T12:52:09;99684.91;;;13.79;62.78
62548;BME280;48602;45.192;5.722;2023-03-20T12:57:29;99673.66;;;14.13;62.43
62548;BME280;48602;45.192;5.722;2023-03-20T13:00:15;99662.28;;;14.30;62.12
62548;BME280;48602;45.192;5.722;2023-03-20T13:02:53;99655.94;;;14.53;62.23
62548;BME280;48602;45.192;5.722;2023-03-20T13:11:35;99642.91;;;15.01;61.16
62548;BME280;48602;45.192;5.722;2023-03-20T13:13:46;99631.66;;;15.14;60.51
62548;BME280;48602;45.192;5.722;2023-03-20T13:21:41;99621.81;;;15.50;60.27
62548;BME280;48602;45.192;5.722;2023-03-20T13:27:13;99610.69;;;15.77;57.88
62548;BME280;48602;45.192;5.722;2023-03-20T13:37:47;99580.81;;;16.52;55.88
62548;BME280;48602;45.192;5.722;2023-03-20T13:47:44;99571.81;;;17.00;55.53
62548;BME280;48602;45.192;5.722;2023-03-20T13:53:05;99556.81;;;17.13;54.56
62548;BME280;48602;45.192;5.722;2023-03-20T13:55:53;99552.41;;;17.12;55.54
62548;BME280;48602;45.192;5.722;2023-03-20T14:03:53;99533.06;;;16.94;54.20
62548;BME280;48602;45.192;5.722;2023-03-20T14:06:55;99532.72;;;17.00;54.00
62548;BME280;48602;45.192;5.722;2023-03-20T14:09:32;99535.03;;;17.21;54.30
62548;BME280;48602;45.192;5.722;2023-03-20T14:12:10;99536.41;;;17.42;52.87
62548;BME280;48602;45.192;5.722;2023-03-20T14:14:44;99536.16;;;17.75;52.84
62548;BME280;48602;45.192;5.722;2023-03-20T14:19:37;99532.97;;;18.38;51.97
62548;BME280;48602;45.192;5.722;2023-03-20T14:22:04;99527.34;;;18.69;51.72
62548;BME280;48602;45.192;5.722;2023-03-20T14:24:35;99532.31;;;19.01;50.92
62548;BME280;48602;45.192;5.722;2023-03-20T14:27:02;99521.53;;;19.28;50.26
62548;BME280;48602;45.192;5.722;2023-03-20T14:32:03;99515.38;;;19.65;49.59
62548;BME280;48602;45.192;5.722;2023-03-20T14:34:45;99510.66;;;19.69;49.33
62548;BME280;48602;45.192;5.722;2023-03-20T14:40:15;99508.59;;;20.21;49.50
62548;BME280;48602;45.192;5.722;2023-03-20T14:43:00;99499.72;;;20.45;49.87
62548;BME280;48602;45.192;5.722;2023-03-20T14:45:40;99506.97;;;20.55;47.20
62548;BME280;48602;45.192;5.722;2023-03-20T14:48:25;99501.59;;;20.79;47.44
62548;BME280;48602;45.192;5.722;2023-03-20T14:53:55;99497.75;;;20.95;46.84
62548;BME280;48602;45.192;5.722;2023-03-20T14:56:28;99489.09;;;20.91;45.83
62548;BME280;48602;45.192;5.722;2023-03-20T14:58:59;99492.31;;;20.72;45.93
62548;BME280;48602;45.192;5.722;2023-03-20T15:04:07;99480.75;;;20.24;45.36
62548;BME280;48602;45.192;5.722;2023-03-20T15:06:34;99486.50;;;20.07;46.37
62548;BME280;48602;45.192;5.722;2023-03-20T15:09:09;99483.97;;;19.93;46.68
62548;BME280;48602;45.192;5.722;2023-03-20T15:11:35;99480.31;;;19.94;46.14
62548;BME280;48602;45.192;5.722;2023-03-20T15:14:05;99472.34;;;20.05;46.85
62548;BME280;48602;45.192;5.722;2023-03-20T15:16:33;99482.59;;;20.11;47.19
62548;BME280;48602;45.192;5.722;2023-03-20T15:18:58;99478.41;;;20.19;45.93
62548;BME280;48602;45.192;5.722;2023-03-20T15:21:35;99472.34;;;20.41;46.19
62548;BME280;48602;45.192;5.722;2023-03-20T15:24:01;99470.44;;;20.54;45.15
62548;BME280;48602;45.192;5.722;2023-03-20T15:26:28;99467.00;;;20.76;45.33
62548;BME280;48602;45.192;5.722;2023-03-20T15:29:01;99465.72;;;20.93;44.05
62548;BME280;48602;45.192;5.722;2023-03-20T15:31:33;99468.63;;;21.01;44.15
62548;BME280;48602;45.192;5.722;2023-03-20T15:34:01;99475.72;;;21.13;44.25
62548;BME280;48602;45.192;5.722;2023-03-20T15:36:32;99468.38;;;21.28;44.00